sensor_id;sensor_type;location;lat;lon;timestamp;P1;durP1;ratioP1;P2;durP2;ratioP2
1577;SDS011;57623;53.608;10.004;2023-04-10T00:02:10;26.30;;;21.30;;
1577;SDS011;57623;53.608;10.004;2023-04-10T00:04:38;25.37;;;20.50;;
1577;SDS011;57623;53.608;10.004;2023-04-10T00:07:08;26.07;;;20.87;;
1577;SDS011;57623;53.608;10.004;2023-04-10T00:09:36;28.53;;;21.30;;
1577;SDS011;57623;53.608;10.004;2023-04-10T00:12:04;23.40;;;20.00;;
1577;SDS011;57623;53.608;10.004;2023-04-10T00:14:32;27.03;;;22.00;;
1577;SDS011;57623;53.608;10.004;2023-04-10T00:17:01;25.33;;;21.50;;
1577;SDS011;57623;53.608;10.004;2023-04-10T00:19:29;24.87;;;21.33;;
1577;SDS011;57623;53.608;10.004;2023-04-10T00:21:57;25.70;;;20.33;;
1577;SDS011;57623;53.608;10.004;2023-04-10T00:24:26;25.33;;;20.10;;
1577;SDS011;57623;53.608;10.004;2023-04-10T00:26:54;25.10;;;21.07;;
1577;SDS011;57623;53.608;10.004;2023-04-10T00:29:22;27.10;;;20.90;;
1577;SDS011;57623;53.608;10.004;2023-04-10T00:31:50;26.20;;;20.03;;
1577;SDS011;57623;53.608;10.004;2023-04-10T00:34:18;25.53;;;21.50;;
1577;SDS011;57623;53.608;10.004;2023-04-10T00:36:46;25.63;;;21.63;;
1577;SDS011;57623;53.608;10.004;2023-04-10T00:39:14;24.63;;;21.60;;
1577;SDS011;57623;53.608;10.004;2023-04-10T00:41:43;25.40;;;21.13;;
1577;SDS011;57623;53.608;10.004;2023-04-10T00:44:11;26.80;;;21.47;;
1577;SDS011;57623;53.608;10.004;2023-04-10T00:46:39;26.10;;;22.10;;
1577;SDS011;57623;53.608;10.004;2023-04-10T00:49:08;25.37;;;21.43;;
1577;SDS011;57623;53.608;10.004;2023-04-10T00:51:36;24.90;;;21.30;;
1577;SDS011;57623;53.608;10.004;2023-04-10T00:54:04;24.00;;;20.40;;
1577;SDS011;57623;53.608;10.004;2023-04-10T00:56:32;24.27;;;19.83;;
1577;SDS011;57623;53.608;10.004;2023-04-10T00:59:02;23.93;;;20.20;;
1577;SDS011;57623;53.608;10.004;2023-04-10T01:01:32;25.00;;;21.47;;
1577;SDS011;57623;53.608;10.004;2023-04-10T01:04:00;24.03;;;20.67;;
1577;SDS011;57623;53.608;10.004;2023-04-10T01:06:32;28.70;;;21.77;;
1577;SDS011;57623;53.608;10.004;2023-04-10T01:09:09;26.40;;;20.97;;
1577;SDS011;57623;53.608;10.004;2023-04-10T01:11:44;26.97;;;20.60;;
1577;SDS011;57623;53.608;10.004;2023-04-10T01:14:22;29.87;;;21.63;;
1577;SDS011;57623;53.608;10.004;2023-04-10T01:16:59;27.67;;;21.57;;
1577;SDS011;57623;53.608;10.004;2023-04-10T01:19:36;25.27;;;20.47;;
1577;SDS011;57623;53.608;10.004;2023-04-10T01:22:27;26.83;;;22.53;;
1577;SDS011;57623;53.608;10.004;2023-04-10T01:25:01;25.57;;;20.87;;
1577;SDS011;57623;53.608;10.004;2023-04-10T01:27:43;27.93;;;21.60;;
1577;SDS011;57623;53.608;10.004;2023-04-10T01:30:20;23.47;;;20.50;;
1577;SDS011;57623;53.608;10.004;2023-04-10T01:32:49;24.83;;;19.90;;
1577;SDS011;57623;53.608;10.004;2023-04-10T01:35:23;26.27;;;20.50;;
1577;SDS011;57623;53.608;10.004;2023-04-10T01:37:52;27.97;;;21.80;;
1577;SDS011;57623;53.608;10.004;2023-04-10T01:40:21;25.70;;;21.77;;
1577;SDS011;57623;53.608;10.004;2023-04-10T01:42:54;24.77;;;21.17;;
1577;SDS011;57623;53.608;10.004;2023-04-10T01:45:24;25.47;;;20.60;;
1577;SDS011;57623;53.608;10.004;2023-04-10T01:47:54;27.33;;;20.90;;
1577;SDS011;57623;53.608;10.004;2023-04-10T01:50:23;26.97;;;21.93;;
1577;SDS011;57623;53.608;10.004;2023-04-10T01:52:53;24.53;;;20.93;;
1577;SDS011;57623;53.608;10.004;2023-04-10T01:55:23;23.80;;;19.80;;
1577;SDS011;57623;53.608;10.004;2023-04-10T01:57:51;27.70;;;22.03;;
1577;SDS011;57623;53.608;10.004;2023-04-10T02:00:22;26.80;;;20.67;;
1577;SDS011;57623;53.608;10.004;2023-04-10T02:02:51;26.50;;;20.40;;
1577;SDS011;57623;53.608;10.004;2023-04-10T02:05:20;24.33;;;20.13;;
1577;SDS011;57623;53.608;10.004;2023-04-10T02:07:51;26.73;;;20.70;;
1577;SDS011;57623;53.608;10.004;2023-04-10T02:10:24;24.87;;;20.17;;
1577;SDS011;57623;53.608;10.004;2023-04-10T02:12:59;27.80;;;20.10;;
1577;SDS011;57623;53.608;10.004;2023-04-10T02:15:31;26.70;;;21.33;;
1577;SDS011;57623;53.608;10.004;2023-04-10T02:18:02;29.33;;;21.00;;
1577;SDS011;57623;53.608;10.004;2023-04-10T02:20:31;24.80;;;20.17;;
1577;SDS011;57623;53.608;10.004;2023-04-10T02:23:01;27.33;;;20.60;;
1577;SDS011;57623;53.608;10.004;2023-04-10T02:25:30;25.90;;;20.57;;
1577;SDS011;57623;53.608;10.004;2023-04-10T02:28:02;26.37;;;20.77;;
1577;SDS011;57623;53.608;10.004;2023-04-10T02:30:30;24.40;;;20.80;;
1577;SDS011;57623;53.608;10.004;2023-04-10T02:32:58;26.90;;;20.97;;
1577;SDS011;57623;53.608;10.004;2023-04-10T02:35:28;24.60;;;21.60;;
1577;SDS011;57623;53.608;10.004;2023-04-10T02:37:56;24.80;;;20.80;;
1577;SDS011;57623;53.608;10.004;2023-04-10T02:40:24;28.07;;;21.23;;
1577;SDS011;57623;53.608;10.004;2023-04-10T02:42:52;26.73;;;22.50;;
1577;SDS011;57623;53.608;10.004;2023-04-10T02:45:20;26.23;;;20.60;;
1577;SDS011;57623;53.608;10.004;2023-04-10T02:47:47;26.57;;;21.50;;
1577;SDS011;57623;53.608;10.004;2023-04-10T02:50:16;26.23;;;21.73;;
1577;SDS011;57623;53.608;10.004;2023-04-10T02:52:45;27.30;;;22.30;;
1577;SDS011;57623;53.608;10.004;2023-04-10T02:55:13;26.47;;;21.27;;
1577;SDS011;57623;53.608;10.004;2023-04-10T02:57:41;24.93;;;20.17;;
1577;SDS011;57623;53.608;10.004;2023-04-10T03:00:09;25.30;;;20.77;;
1577;SDS011;57623;53.608;10.004;2023-04-10T03:02:38;26.47;;;21.03;;
1577;SDS011;57623;53.608;10.004;2023-04-10T03:05:06;25.63;;;20.93;;
1577;SDS011;57623;53.608;10.004;2023-04-10T03:07:35;28.30;;;20.97;;
1577;SDS011;57623;53.608;10.004;2023-04-10T03:10:05;26.47;;;21.70;;
1577;SDS011;57623;53.608;10.004;2023-04-10T03:12:33;26.00;;;21.30;;
1577;SDS011;57623;53.608;10.004;2023-04-10T03:15:01;25.30;;;20.50;;
1577;SDS011;57623;53.608;10.004;2023-04-10T03:17:30;24.80;;;20.40;;
1577;SDS011;57623;53.608;10.004;2023-04-10T03:19:58;25.27;;;21.00;;
1577;SDS011;57623;53.608;10.004;2023-04-10T03:22:26;25.73;;;19.73;;
1577;SDS011;57623;53.608;10.004;2023-04-10T03:24:57;27.77;;;22.43;;
1577;SDS011;57623;53.608;10.004;2023-04-10T03:27:26;26.77;;;20.80;;
1577;SDS011;57623;53.608;10.004;2023-04-10T03:29:57;26.20;;;20.47;;
1577;SDS011;57623;53.608;10.004;2023-04-10T03:32:25;25.60;;;20.30;;
1577;SDS011;57623;53.608;10.004;2023-04-10T03:34:56;29.20;;;21.43;;
1577;SDS011;57623;53.608;10.004;2023-04-10T03:37:24;27.87;;;21.57;;
1577;SDS011;57623;53.608;10.004;2023-04-10T03:39:53;27.10;;;22.37;;
1577;SDS011;57623;53.608;10.004;2023-04-10T03:42:21;28.30;;;21.20;;
1577;SDS011;57623;53.608;10.004;2023-04-10T03:44:51;27.63;;;21.97;;
1577;SDS011;57623;53.608;10.004;2023-04-10T03:47:19;25.00;;;20.80;;
1577;SDS011;57623;53.608;10.004;2023-04-10T03:49:47;24.50;;;21.20;;
1577;SDS011;57623;53.608;10.004;2023-04-10T03:52:15;25.63;;;20.93;;
1577;SDS011;57623;53.608;10.004;2023-04-10T03:54:43;29.27;;;21.53;;
1577;SDS011;57623;53.608;10.004;2023-04-10T03:57:11;27.17;;;22.07;;
1577;SDS011;57623;53.608;10.004;2023-04-10T03:59:39;27.47;;;21.47;;
1577;SDS011;57623;53.608;10.004;2023-04-10T04:02:08;27.50;;;21.83;;
1577;SDS011;57623;53.608;10.004;2023-04-10T04:04:36;24.30;;;20.27;;
1577;SDS011;57623;53.608;10.004;2023-04-10T04:07:05;26.57;;;20.93;;
1577;SDS011;57623;53.608;10.004;2023-04-10T04:09:34;27.00;;;21.57;;
1577;SDS011;57623;53.608;10.004;2023-04-10T04:12:02;28.03;;;22.03;;
1577;SDS011;57623;53.608;10.004;2023-04-10T04:14:30;25.60;;;21.17;;
1577;SDS011;57623;53.608;10.004;2023-04-10T04:16:58;28.90;;;23.47;;
1577;SDS011;57623;53.608;10.004;2023-04-10T04:19:27;24.00;;;20.13;;
1577;SDS011;57623;53.608;10.004;2023-04-10T04:21:55;27.87;;;22.17;;
1577;SDS011;57623;53.608;10.004;2023-04-10T04:24:25;26.00;;;20.40;;
1577;SDS011;57623;53.608;10.004;2023-04-10T04:26:53;29.33;;;21.67;;
1577;SDS011;57623;53.608;10.004;2023-04-10T04:29:21;28.10;;;21.50;;
1577;SDS011;57623;53.608;10.004;2023-04-10T04:31:49;29.73;;;21.03;;
1577;SDS011;57623;53.608;10.004;2023-04-10T04:34:17;27.97;;;21.07;;
1577;SDS011;57623;53.608;10.004;2023-04-10T04:36:47;25.00;;;21.23;;
1577;SDS011;57623;53.608;10.004;2023-04-10T04:39:14;28.07;;;21.50;;
1577;SDS011;57623;53.608;10.004;2023-04-10T04:41:42;27.63;;;21.00;;
1577;SDS011;57623;53.608;10.004;2023-04-10T04:44:10;26.90;;;21.13;;
1577;SDS011;57623;53.608;10.004;2023-04-10T04:46:38;30.53;;;22.33;;
1577;SDS011;57623;53.608;10.004;2023-04-10T04:49:09;26.70;;;21.20;;
1577;SDS011;57623;53.608;10.004;2023-04-10T04:51:38;27.67;;;21.70;;
1577;SDS011;57623;53.608;10.004;2023-04-10T04:54:07;26.60;;;21.57;;
1577;SDS011;57623;53.608;10.004;2023-04-10T04:56:35;28.37;;;22.33;;
1577;SDS011;57623;53.608;10.004;2023-04-10T04:59:03;24.07;;;20.57;;
1577;SDS011;57623;53.608;10.004;2023-04-10T05:01:31;28.60;;;21.80;;
1577;SDS011;57623;53.608;10.004;2023-04-10T05:03:59;26.00;;;21.00;;
1577;SDS011;57623;53.608;10.004;2023-04-10T05:06:27;25.70;;;20.40;;
1577;SDS011;57623;53.608;10.004;2023-04-10T05:08:56;27.30;;;21.60;;
1577;SDS011;57623;53.608;10.004;2023-04-10T05:11:26;25.83;;;20.53;;
1577;SDS011;57623;53.608;10.004;2023-04-10T05:13:54;27.53;;;21.57;;
1577;SDS011;57623;53.608;10.004;2023-04-10T05:16:21;28.50;;;21.97;;
1577;SDS011;57623;53.608;10.004;2023-04-10T05:18:49;27.57;;;21.97;;
1577;SDS011;57623;53.608;10.004;2023-04-10T05:21:18;28.50;;;22.10;;
1577;SDS011;57623;53.608;10.004;2023-04-10T05:23:46;31.07;;;23.00;;
1577;SDS011;57623;53.608;10.004;2023-04-10T05:26:14;29.20;;;21.70;;
1577;SDS011;57623;53.608;10.004;2023-04-10T05:28:43;26.23;;;21.13;;
1577;SDS011;57623;53.608;10.004;2023-04-10T05:31:11;27.03;;;21.27;;
1577;SDS011;57623;53.608;10.004;2023-04-10T05:33:39;28.23;;;20.90;;
1577;SDS011;57623;53.608;10.004;2023-04-10T05:36:08;26.47;;;21.40;;
1577;SDS011;57623;53.608;10.004;2023-04-10T05:38:36;27.30;;;21.60;;
1577;SDS011;57623;53.608;10.004;2023-04-10T05:41:04;27.30;;;20.83;;
1577;SDS011;57623;53.608;10.004;2023-04-10T05:43:32;27.43;;;20.53;;
1577;SDS011;57623;53.608;10.004;2023-04-10T05:46:02;26.40;;;20.70;;
1577;SDS011;57623;53.608;10.004;2023-04-10T05:48:30;30.00;;;21.13;;
1577;SDS011;57623;53.608;10.004;2023-04-10T05:50:58;25.63;;;20.63;;
1577;SDS011;57623;53.608;10.004;2023-04-10T05:53:27;24.00;;;20.60;;
1577;SDS011;57623;53.608;10.004;2023-04-10T05:55:57;28.33;;;22.23;;
1577;SDS011;57623;53.608;10.004;2023-04-10T05:58:27;25.80;;;19.63;;
1577;SDS011;57623;53.608;10.004;2023-04-10T06:00:56;27.93;;;21.23;;
1577;SDS011;57623;53.608;10.004;2023-04-10T06:03:25;27.93;;;21.20;;
1577;SDS011;57623;53.608;10.004;2023-04-10T06:05:56;25.07;;;19.93;;
1577;SDS011;57623;53.608;10.004;2023-04-10T06:08:24;28.83;;;22.20;;
1577;SDS011;57623;53.608;10.004;2023-04-10T06:10:51;24.80;;;20.20;;
1577;SDS011;57623;53.608;10.004;2023-04-10T06:13:19;26.70;;;21.70;;
1577;SDS011;57623;53.608;10.004;2023-04-10T06:15:47;25.80;;;21.37;;
1577;SDS011;57623;53.608;10.004;2023-04-10T06:18:15;27.80;;;21.40;;
1577;SDS011;57623;53.608;10.004;2023-04-10T06:20:45;27.17;;;20.47;;
1577;SDS011;57623;53.608;10.004;2023-04-10T06:23:13;25.40;;;20.90;;
1577;SDS011;57623;53.608;10.004;2023-04-10T06:25:41;26.57;;;21.00;;
1577;SDS011;57623;53.608;10.004;2023-04-10T06:28:09;26.70;;;21.60;;
1577;SDS011;57623;53.608;10.004;2023-04-10T06:30:37;28.77;;;22.03;;
1577;SDS011;57623;53.608;10.004;2023-04-10T06:33:05;28.07;;;21.90;;
1577;SDS011;57623;53.608;10.004;2023-04-10T06:35:33;26.43;;;20.67;;
1577;SDS011;57623;53.608;10.004;2023-04-10T06:38:04;26.80;;;20.73;;
1577;SDS011;57623;53.608;10.004;2023-04-10T06:40:32;26.77;;;20.80;;
1577;SDS011;57623;53.608;10.004;2023-04-10T06:43:00;25.10;;;20.57;;
1577;SDS011;57623;53.608;10.004;2023-04-10T06:45:28;28.43;;;22.13;;
1577;SDS011;57623;53.608;10.004;2023-04-10T06:47:56;24.30;;;21.03;;
1577;SDS011;57623;53.608;10.004;2023-04-10T06:50:24;26.43;;;22.07;;
1577;SDS011;57623;53.608;10.004;2023-04-10T06:52:52;25.77;;;21.60;;
1577;SDS011;57623;53.608;10.004;2023-04-10T06:55:22;26.00;;;21.40;;
1577;SDS011;57623;53.608;10.004;2023-04-10T06:57:50;26.57;;;20.83;;
1577;SDS011;57623;53.608;10.004;2023-04-10T07:00:18;25.63;;;20.97;;
1577;SDS011;57623;53.608;10.004;2023-04-10T07:02:47;24.93;;;21.17;;
1577;SDS011;57623;53.608;10.004;2023-04-10T07:05:16;23.80;;;19.80;;
1577;SDS011;57623;53.608;10.004;2023-04-10T07:07:44;25.17;;;20.27;;
1577;SDS011;57623;53.608;10.004;2023-04-10T07:10:12;25.17;;;21.10;;
1577;SDS011;57623;53.608;10.004;2023-04-10T07:12:42;26.73;;;20.90;;
1577;SDS011;57623;53.608;10.004;2023-04-10T07:15:10;24.07;;;20.30;;
1577;SDS011;57623;53.608;10.004;2023-04-10T07:17:38;25.47;;;21.57;;
1577;SDS011;57623;53.608;10.004;2023-04-10T07:20:07;26.23;;;21.97;;
1577;SDS011;57623;53.608;10.004;2023-04-10T07:22:35;24.90;;;20.80;;
1577;SDS011;57623;53.608;10.004;2023-04-10T07:25:03;27.33;;;21.60;;
1577;SDS011;57623;53.608;10.004;2023-04-10T07:27:32;24.93;;;21.20;;
1577;SDS011;57623;53.608;10.004;2023-04-10T07:30:02;23.63;;;20.60;;
1577;SDS011;57623;53.608;10.004;2023-04-10T07:32:31;25.53;;;20.37;;
1577;SDS011;57623;53.608;10.004;2023-04-10T07:35:00;23.50;;;20.47;;
1577;SDS011;57623;53.608;10.004;2023-04-10T07:37:28;25.70;;;21.80;;
1577;SDS011;57623;53.608;10.004;2023-04-10T07:39:56;25.77;;;22.20;;
1577;SDS011;57623;53.608;10.004;2023-04-10T07:42:24;22.03;;;19.70;;
1577;SDS011;57623;53.608;10.004;2023-04-10T07:44:52;23.70;;;19.87;;
1577;SDS011;57623;53.608;10.004;2023-04-10T07:47:22;24.37;;;20.80;;
1577;SDS011;57623;53.608;10.004;2023-04-10T07:49:50;22.83;;;19.50;;
1577;SDS011;57623;53.608;10.004;2023-04-10T07:52:18;23.70;;;20.40;;
1577;SDS011;57623;53.608;10.004;2023-04-10T07:54:47;22.93;;;20.43;;
1577;SDS011;57623;53.608;10.004;2023-04-10T07:57:15;22.07;;;18.93;;
1577;SDS011;57623;53.608;10.004;2023-04-10T07:59:43;23.20;;;19.90;;
1577;SDS011;57623;53.608;10.004;2023-04-10T08:02:11;21.40;;;19.20;;
1577;SDS011;57623;53.608;10.004;2023-04-10T08:04:41;24.90;;;19.70;;
1577;SDS011;57623;53.608;10.004;2023-04-10T08:07:09;23.23;;;19.90;;
1577;SDS011;57623;53.608;10.004;2023-04-10T08:09:37;22.20;;;18.70;;
1577;SDS011;57623;53.608;10.004;2023-04-10T08:12:05;23.37;;;19.67;;
1577;SDS011;57623;53.608;10.004;2023-04-10T08:14:33;21.90;;;18.20;;
1577;SDS011;57623;53.608;10.004;2023-04-10T08:17:01;22.00;;;19.70;;
1577;SDS011;57623;53.608;10.004;2023-04-10T08:19:29;20.93;;;18.57;;
1577;SDS011;57623;53.608;10.004;2023-04-10T08:21:58;21.27;;;18.47;;
1577;SDS011;57623;53.608;10.004;2023-04-10T08:24:26;20.90;;;18.67;;
1577;SDS011;57623;53.608;10.004;2023-04-10T08:26:54;21.57;;;19.27;;
1577;SDS011;57623;53.608;10.004;2023-04-10T08:29:22;22.70;;;20.20;;
1577;SDS011;57623;53.608;10.004;2023-04-10T08:31:50;20.90;;;18.50;;
1577;SDS011;57623;53.608;10.004;2023-04-10T08:34:19;20.50;;;18.30;;
1577;SDS011;57623;53.608;10.004;2023-04-10T08:36:49;21.83;;;18.20;;
1577;SDS011;57623;53.608;10.004;2023-04-10T08:39:18;20.90;;;18.60;;
1577;SDS011;57623;53.608;10.004;2023-04-10T08:41:46;21.10;;;18.90;;
1577;SDS011;57623;53.608;10.004;2023-04-10T08:44:14;22.37;;;19.00;;
1577;SDS011;57623;53.608;10.004;2023-04-10T08:46:43;20.77;;;18.57;;
1577;SDS011;57623;53.608;10.004;2023-04-10T08:49:14;21.50;;;19.20;;
1577;SDS011;57623;53.608;10.004;2023-04-10T08:51:45;19.73;;;17.53;;
1577;SDS011;57623;53.608;10.004;2023-04-10T08:54:20;19.27;;;17.27;;
1577;SDS011;57623;53.608;10.004;2023-04-10T08:56:52;20.80;;;18.53;;
1577;SDS011;57623;53.608;10.004;2023-04-10T08:59:23;21.30;;;19.10;;
1577;SDS011;57623;53.608;10.004;2023-04-10T09:01:52;19.83;;;17.70;;
1577;SDS011;57623;53.608;10.004;2023-04-10T09:04:20;19.03;;;17.17;;
1577;SDS011;57623;53.608;10.004;2023-04-10T09:06:49;20.03;;;17.93;;
1577;SDS011;57623;53.608;10.004;2023-04-10T09:09:19;20.30;;;18.10;;
1577;SDS011;57623;53.608;10.004;2023-04-10T09:11:57;19.53;;;17.53;;
1577;SDS011;57623;53.608;10.004;2023-04-10T09:14:29;18.33;;;16.53;;
1577;SDS011;57623;53.608;10.004;2023-04-10T09:19:46;17.20;;;15.50;;
1577;SDS011;57623;53.608;10.004;2023-04-10T09:22:14;16.20;;;14.60;;
1577;SDS011;57623;53.608;10.004;2023-04-10T09:24:45;16.40;;;14.67;;
1577;SDS011;57623;53.608;10.004;2023-04-10T09:27:26;16.63;;;14.93;;
1577;SDS011;57623;53.608;10.004;2023-04-10T09:29:56;17.17;;;15.50;;
1577;SDS011;57623;53.608;10.004;2023-04-10T09:32:38;15.97;;;14.37;;
1577;SDS011;57623;53.608;10.004;2023-04-10T09:35:08;17.23;;;15.43;;
1577;SDS011;57623;53.608;10.004;2023-04-10T09:37:37;16.53;;;14.93;;
1577;SDS011;57623;53.608;10.004;2023-04-10T09:40:18;17.37;;;15.57;;
1577;SDS011;57623;53.608;10.004;2023-04-10T09:42:46;17.07;;;15.37;;
1577;SDS011;57623;53.608;10.004;2023-04-10T09:45:14;17.30;;;15.50;;
1577;SDS011;57623;53.608;10.004;2023-04-10T09:47:55;17.33;;;15.53;;
1577;SDS011;57623;53.608;10.004;2023-04-10T09:50:33;16.93;;;15.33;;
1577;SDS011;57623;53.608;10.004;2023-04-10T09:53:05;15.13;;;13.67;;
1577;SDS011;57623;53.608;10.004;2023-04-10T09:55:34;15.77;;;14.17;;
1577;SDS011;57623;53.608;10.004;2023-04-10T09:58:04;15.87;;;14.37;;
1577;SDS011;57623;53.608;10.004;2023-04-10T10:00:34;16.40;;;14.80;;
1577;SDS011;57623;53.608;10.004;2023-04-10T10:03:06;15.93;;;14.47;;
1577;SDS011;57623;53.608;10.004;2023-04-10T10:05:37;15.60;;;14.13;;
1577;SDS011;57623;53.608;10.004;2023-04-10T10:08:08;13.40;;;12.10;;
1577;SDS011;57623;53.608;10.004;2023-04-10T10:10:41;12.47;;;11.27;;
1577;SDS011;57623;53.608;10.004;2023-04-10T10:13:14;12.10;;;11.00;;
1577;SDS011;57623;53.608;10.004;2023-04-10T10:15:45;12.03;;;11.00;;
1577;SDS011;57623;53.608;10.004;2023-04-10T10:18:21;12.27;;;11.10;;
1577;SDS011;57623;53.608;10.004;2023-04-10T10:20:56;12.03;;;10.80;;
1577;SDS011;57623;53.608;10.004;2023-04-10T10:23:25;11.40;;;10.30;;
1577;SDS011;57623;53.608;10.004;2023-04-10T10:25:56;10.50;;;9.60;;
1577;SDS011;57623;53.608;10.004;2023-04-10T10:28:29;11.40;;;10.33;;
1577;SDS011;57623;53.608;10.004;2023-04-10T10:30:59;11.77;;;10.67;;
1577;SDS011;57623;53.608;10.004;2023-04-10T10:33:29;11.83;;;10.83;;
1577;SDS011;57623;53.608;10.004;2023-04-10T10:35:57;11.60;;;10.60;;
1577;SDS011;57623;53.608;10.004;2023-04-10T10:38:26;11.43;;;10.33;;
1577;SDS011;57623;53.608;10.004;2023-04-10T10:40:59;12.00;;;10.90;;
1577;SDS011;57623;53.608;10.004;2023-04-10T10:43:35;11.10;;;10.10;;
1577;SDS011;57623;53.608;10.004;2023-04-10T10:46:15;10.43;;;9.53;;
1577;SDS011;57623;53.608;10.004;2023-04-10T10:48:55;10.03;;;9.13;;
1577;SDS011;57623;53.608;10.004;2023-04-10T10:51:29;9.37;;;8.57;;
1577;SDS011;57623;53.608;10.004;2023-04-10T10:56:58;12.00;;;9.87;;
1577;SDS011;57623;53.608;10.004;2023-04-10T11:02:20;10.40;;;9.50;;
1577;SDS011;57623;53.608;10.004;2023-04-10T11:04:48;9.90;;;9.10;;
1577;SDS011;57623;53.608;10.004;2023-04-10T11:07:16;10.13;;;9.13;;
1577;SDS011;57623;53.608;10.004;2023-04-10T11:09:45;9.70;;;8.90;;
1577;SDS011;57623;53.608;10.004;2023-04-10T11:12:16;9.83;;;8.90;;
1577;SDS011;57623;53.608;10.004;2023-04-10T11:14:55;10.40;;;9.50;;
1577;SDS011;57623;53.608;10.004;2023-04-10T11:20:16;8.33;;;7.70;;
1577;SDS011;57623;53.608;10.004;2023-04-10T11:23:05;9.17;;;8.40;;
1577;SDS011;57623;53.608;10.004;2023-04-10T11:25:44;8.10;;;7.40;;
1577;SDS011;57623;53.608;10.004;2023-04-10T11:28:37;8.37;;;7.67;;
1577;SDS011;57623;53.608;10.004;2023-04-10T11:31:12;8.73;;;7.50;;
1577;SDS011;57623;53.608;10.004;2023-04-10T11:33:45;8.17;;;7.47;;
1577;SDS011;57623;53.608;10.004;2023-04-10T11:36:15;8.70;;;8.00;;
1577;SDS011;57623;53.608;10.004;2023-04-10T11:38:53;9.90;;;9.00;;
1577;SDS011;57623;53.608;10.004;2023-04-10T11:41:25;8.70;;;8.00;;
1577;SDS011;57623;53.608;10.004;2023-04-10T11:43:57;8.23;;;7.53;;
1577;SDS011;57623;53.608;10.004;2023-04-10T11:46:26;7.80;;;7.20;;
1577;SDS011;57623;53.608;10.004;2023-04-10T11:48:56;8.67;;;7.77;;
1577;SDS011;57623;53.608;10.004;2023-04-10T11:51:26;8.00;;;7.27;;
1577;SDS011;57623;53.608;10.004;2023-04-10T11:54:04;9.83;;;7.77;;
1577;SDS011;57623;53.608;10.004;2023-04-10T11:56:33;8.20;;;7.50;;
1577;SDS011;57623;53.608;10.004;2023-04-10T11:59:04;6.33;;;5.83;;
1577;SDS011;57623;53.608;10.004;2023-04-10T12:01:36;6.40;;;5.90;;
1577;SDS011;57623;53.608;10.004;2023-04-10T12:04:13;7.97;;;7.17;;
1577;SDS011;57623;53.608;10.004;2023-04-10T12:06:43;7.23;;;6.63;;
1577;SDS011;57623;53.608;10.004;2023-04-10T12:09:12;6.80;;;6.30;;
1577;SDS011;57623;53.608;10.004;2023-04-10T12:11:47;7.33;;;6.73;;
1577;SDS011;57623;53.608;10.004;2023-04-10T12:14:18;7.30;;;6.70;;
1577;SDS011;57623;53.608;10.004;2023-04-10T12:16:47;7.27;;;6.73;;
1577;SDS011;57623;53.608;10.004;2023-04-10T12:19:16;7.63;;;6.83;;
1577;SDS011;57623;53.608;10.004;2023-04-10T12:21:45;7.20;;;6.70;;
1577;SDS011;57623;53.608;10.004;2023-04-10T12:27:16;7.40;;;6.70;;
1577;SDS011;57623;53.608;10.004;2023-04-10T12:29:47;7.17;;;6.57;;
1577;SDS011;57623;53.608;10.004;2023-04-10T12:32:17;7.23;;;6.60;;
1577;SDS011;57623;53.608;10.004;2023-04-10T12:34:48;7.37;;;6.80;;
1577;SDS011;57623;53.608;10.004;2023-04-10T12:37:17;7.83;;;7.10;;
1577;SDS011;57623;53.608;10.004;2023-04-10T12:39:45;7.30;;;6.60;;
1577;SDS011;57623;53.608;10.004;2023-04-10T12:42:13;7.60;;;6.90;;
1577;SDS011;57623;53.608;10.004;2023-04-10T12:44:54;8.00;;;7.30;;
1577;SDS011;57623;53.608;10.004;2023-04-10T12:47:23;6.60;;;6.10;;
1577;SDS011;57623;53.608;10.004;2023-04-10T12:50:01;6.87;;;6.37;;
1577;SDS011;57623;53.608;10.004;2023-04-10T12:52:30;7.33;;;6.80;;
1577;SDS011;57623;53.608;10.004;2023-04-10T12:55:07;7.40;;;6.70;;
1577;SDS011;57623;53.608;10.004;2023-04-10T12:57:39;7.30;;;6.80;;
1577;SDS011;57623;53.608;10.004;2023-04-10T13:00:10;6.77;;;6.27;;
1577;SDS011;57623;53.608;10.004;2023-04-10T13:02:40;6.93;;;6.23;;
1577;SDS011;57623;53.608;10.004;2023-04-10T13:05:08;6.73;;;6.10;;
1577;SDS011;57623;53.608;10.004;2023-04-10T13:07:37;5.93;;;5.53;;
1577;SDS011;57623;53.608;10.004;2023-04-10T13:10:06;5.83;;;5.20;;
1577;SDS011;57623;53.608;10.004;2023-04-10T13:12:35;6.20;;;5.70;;
1577;SDS011;57623;53.608;10.004;2023-04-10T13:15:05;6.50;;;6.00;;
1577;SDS011;57623;53.608;10.004;2023-04-10T13:17:35;5.80;;;5.40;;
1577;SDS011;57623;53.608;10.004;2023-04-10T13:20:03;6.30;;;5.83;;
1577;SDS011;57623;53.608;10.004;2023-04-10T13:22:32;6.43;;;5.83;;
1577;SDS011;57623;53.608;10.004;2023-04-10T13:25:00;5.73;;;5.33;;
1577;SDS011;57623;53.608;10.004;2023-04-10T13:27:29;5.90;;;5.50;;
1577;SDS011;57623;53.608;10.004;2023-04-10T13:29:57;7.63;;;5.63;;
1577;SDS011;57623;53.608;10.004;2023-04-10T13:32:25;5.70;;;5.03;;
1577;SDS011;57623;53.608;10.004;2023-04-10T13:34:54;5.97;;;5.37;;
1577;SDS011;57623;53.608;10.004;2023-04-10T13:37:22;5.20;;;4.80;;
1577;SDS011;57623;53.608;10.004;2023-04-10T13:39:51;5.97;;;5.47;;
1577;SDS011;57623;53.608;10.004;2023-04-10T13:42:20;6.13;;;5.63;;
1577;SDS011;57623;53.608;10.004;2023-04-10T13:44:48;5.53;;;5.03;;
1577;SDS011;57623;53.608;10.004;2023-04-10T13:47:15;5.70;;;5.30;;
1577;SDS011;57623;53.608;10.004;2023-04-10T13:49:43;5.93;;;5.50;;
1577;SDS011;57623;53.608;10.004;2023-04-10T13:52:13;5.63;;;5.13;;
1577;SDS011;57623;53.608;10.004;2023-04-10T13:54:41;6.10;;;5.60;;
1577;SDS011;57623;53.608;10.004;2023-04-10T13:57:09;5.80;;;5.30;;
1577;SDS011;57623;53.608;10.004;2023-04-10T13:59:37;5.77;;;5.17;;
1577;SDS011;57623;53.608;10.004;2023-04-10T14:02:05;5.57;;;5.10;;
1577;SDS011;57623;53.608;10.004;2023-04-10T14:04:34;6.40;;;5.80;;
1577;SDS011;57623;53.608;10.004;2023-04-10T14:07:02;5.13;;;4.73;;
1577;SDS011;57623;53.608;10.004;2023-04-10T14:09:31;5.30;;;4.90;;
1577;SDS011;57623;53.608;10.004;2023-04-10T14:11:59;6.03;;;5.13;;
1577;SDS011;57623;53.608;10.004;2023-04-10T14:14:28;6.57;;;5.97;;
1577;SDS011;57623;53.608;10.004;2023-04-10T14:16:56;7.07;;;5.60;;
1577;SDS011;57623;53.608;10.004;2023-04-10T14:19:24;6.27;;;5.77;;
1577;SDS011;57623;53.608;10.004;2023-04-10T14:21:52;6.33;;;5.80;;
1577;SDS011;57623;53.608;10.004;2023-04-10T14:24:20;5.90;;;5.50;;
1577;SDS011;57623;53.608;10.004;2023-04-10T14:26:49;5.90;;;5.40;;
1577;SDS011;57623;53.608;10.004;2023-04-10T14:29:19;5.43;;;5.03;;
1577;SDS011;57623;53.608;10.004;2023-04-10T14:32:00;5.30;;;4.90;;
1577;SDS011;57623;53.608;10.004;2023-04-10T14:34:28;6.50;;;6.00;;
1577;SDS011;57623;53.608;10.004;2023-04-10T14:36:56;5.90;;;5.30;;
1577;SDS011;57623;53.608;10.004;2023-04-10T14:39:24;6.10;;;5.60;;
1577;SDS011;57623;53.608;10.004;2023-04-10T14:41:54;6.30;;;5.73;;
1577;SDS011;57623;53.608;10.004;2023-04-10T14:44:22;6.80;;;6.20;;
1577;SDS011;57623;53.608;10.004;2023-04-10T14:46:50;6.83;;;6.23;;
1577;SDS011;57623;53.608;10.004;2023-04-10T14:49:18;7.47;;;6.37;;
1577;SDS011;57623;53.608;10.004;2023-04-10T14:51:46;6.60;;;6.00;;
1577;SDS011;57623;53.608;10.004;2023-04-10T14:54:15;7.27;;;6.63;;
1577;SDS011;57623;53.608;10.004;2023-04-10T14:56:46;6.93;;;6.33;;
1577;SDS011;57623;53.608;10.004;2023-04-10T14:59:16;6.53;;;5.93;;